createdAt,value
2023-02-19T00:01:33.357Z,100896.44
2023-02-19T00:04:03.578Z,100897.03
2023-02-19T00:06:32.958Z,100903.94
2023-02-19T00:09:01.602Z,100892.03
2023-02-19T00:11:30.827Z,100902.84
2023-02-19T00:13:59.328Z,100900.63
2023-02-19T00:16:29.148Z,100899.13
2023-02-19T00:18:57.869Z,100908.00
2023-02-19T00:21:25.448Z,100904.03
2023-02-19T00:23:54.262Z,100904.53
2023-02-19T00:26:21.578Z,100906.38
2023-02-19T00:28:49.911Z,100908.72
2023-02-19T00:31:22.832Z,100906.34
2023-02-19T00:33:52.014Z,100906.78
2023-02-19T00:36:18.754Z,100903.09
2023-02-19T00:38:46.206Z,100899.56
2023-02-19T00:41:20.214Z,100899.78
2023-02-19T00:43:54.226Z,100895.72
2023-02-19T00:46:23.318Z,100889.28
2023-02-19T00:48:50.562Z,100892.13
2023-02-19T00:51:17.415Z,100888.22
2023-02-19T00:53:44.436Z,100887.34
2023-02-19T00:56:11.689Z,100893.03
2023-02-19T00:58:38.623Z,100884.03
2023-02-19T01:01:06.686Z,100888.97
2023-02-19T01:03:34.918Z,100889.06
2023-02-19T01:06:02.605Z,100888.03
2023-02-19T01:08:31.141Z,100884.47
2023-02-19T01:10:58.338Z,100888.09
2023-02-19T01:13:25.437Z,100887.59
2023-02-19T01:15:52.478Z,100885.66
2023-02-19T01:18:19.080Z,100885.38
2023-02-19T01:20:46.279Z,100879.44
2023-02-19T01:23:13.998Z,100874.66
2023-02-19T01:25:42.263Z,100872.31
2023-02-19T01:28:11.016Z,100874.91
2023-02-19T01:30:38.956Z,100871.09
2023-02-19T01:33:06.982Z,100873.16
2023-02-19T01:35:34.052Z,100878.41
2023-02-19T01:38:00.667Z,100877.06
2023-02-19T01:40:27.303Z,100866.22
2023-02-19T01:42:54.098Z,100869.19
2023-02-19T01:45:23.389Z,100855.78
2023-02-19T01:47:58.941Z,100861.28
2023-02-19T01:50:28.838Z,100857.97
2023-02-19T01:52:55.771Z,100854.38
2023-02-19T01:55:23.996Z,100849.72
2023-02-19T01:57:55.475Z,100854.00
2023-02-19T02:00:24.409Z,100844.91
2023-02-19T02:02:54.929Z,100849.16
2023-02-19T02:05:45.095Z,100847.19
2023-02-19T02:08:32.109Z,100850.03
2023-02-19T02:10:58.848Z,100838.56
2023-02-19T02:13:25.536Z,100836.38
2023-02-19T02:15:59.745Z,100827.25
2023-02-19T02:18:41.201Z,100836.25
2023-02-19T02:22:05.487Z,100829.31
2023-02-19T02:24:49.389Z,100832.91
2023-02-19T02:27:30.999Z,100829.25
2023-02-19T02:30:15.710Z,100824.94
2023-02-19T02:33:00.504Z,100823.81
2023-02-19T02:35:32.914Z,100821.22
2023-02-19T02:38:05.122Z,100816.13
2023-02-19T02:40:31.923Z,100821.63
2023-02-19T02:43:00.151Z,100828.13
2023-02-19T02:45:35.520Z,100825.97
2023-02-19T02:48:15.022Z,100816.19
2023-02-19T02:50:51.190Z,100817.66
2023-02-19T02:54:05.482Z,100805.56
2023-02-19T02:56:33.509Z,100812.22
2023-02-19T02:59:02.565Z,100814.94
2023-02-19T03:02:00.913Z,100813.69
2023-02-19T03:05:16.332Z,100809.84
2023-02-19T03:07:58.061Z,100812.38
2023-02-19T03:10:30.901Z,100807.78
2023-02-19T03:13:18.908Z,100813.00
2023-02-19T03:16:09.813Z,100812.25
2023-02-19T03:18:58.653Z,100806.44
2023-02-19T03:21:27.558Z,100817.13
2023-02-19T03:24:15.759Z,100815.03
2023-02-19T03:26:45.670Z,100805.88
2023-02-19T03:29:28.976Z,100811.25
2023-02-19T03:32:00.445Z,100808.53
2023-02-19T03:34:35.254Z,100790.19
2023-02-19T03:37:16.078Z,100802.47
2023-02-19T03:39:46.463Z,100804.78
2023-02-19T03:42:17.950Z,100805.34
2023-02-19T03:45:02.576Z,100798.53
2023-02-19T03:47:34.401Z,100798.63
2023-02-19T03:50:08.865Z,100799.13
2023-02-19T03:53:00.494Z,100796.31
2023-02-19T03:55:38.936Z,100800.00
2023-02-19T03:58:12.339Z,100807.56
2023-02-19T04:00:52.352Z,100808.78
2023-02-19T04:03:56.412Z,100818.91
2023-02-19T04:06:27.633Z,100819.00
2023-02-19T04:08:58.819Z,100828.41
2023-02-19T04:11:27.635Z,100824.69
2023-02-19T04:14:12.823Z,100827.94
2023-02-19T04:16:45.602Z,100826.59
2023-02-19T04:19:15.942Z,100825.84
2023-02-19T04:21:44.553Z,100829.97
2023-02-19T04:24:15.111Z,100830.03
2023-02-19T04:26:43.233Z,100826.38
2023-02-19T04:29:09.756Z,100824.75
2023-02-19T04:31:37.103Z,100829.63
2023-02-19T04:34:05.856Z,100829.59
2023-02-19T04:36:33.180Z,100831.41
2023-02-19T04:38:59.891Z,100836.00
2023-02-19T04:41:26.586Z,100843.28
2023-02-19T04:43:53.130Z,100830.94
2023-02-19T04:46:19.905Z,100846.03
2023-02-19T04:48:46.612Z,100847.19
2023-02-19T04:51:13.400Z,100848.56
2023-02-19T04:53:40.231Z,100858.38
2023-02-19T04:56:15.283Z,100849.84
2023-02-19T04:58:42.872Z,100850.03
2023-02-19T05:01:10.556Z,100860.28
2023-02-19T05:03:37.925Z,100858.75
2023-02-19T05:06:06.662Z,100866.47
2023-02-19T05:08:34.035Z,100860.50
2023-02-19T05:11:02.856Z,100850.63
2023-02-19T05:13:30.804Z,100859.13
2023-02-19T05:16:00.431Z,100854.91
2023-02-19T05:18:27.777Z,100843.44
2023-02-19T05:20:54.466Z,100854.88
2023-02-19T05:23:21.800Z,100844.16
2023-02-19T05:25:48.489Z,100843.13
2023-02-19T05:28:22.043Z,100836.78
2023-02-19T05:30:51.204Z,100841.59
2023-02-19T05:33:19.785Z,100833.66
2023-02-19T05:35:48.727Z,100836.44
2023-02-19T05:38:16.432Z,100828.94
2023-02-19T05:40:43.992Z,100831.00
2023-02-19T05:43:11.612Z,100819.25
2023-02-19T05:45:38.352Z,100821.91
2023-02-19T05:48:06.483Z,100815.75
2023-02-19T05:50:35.658Z,100810.94
2023-02-19T05:53:04.243Z,100810.09
2023-02-19T05:55:35.274Z,100797.94
2023-02-19T05:58:02.050Z,100787.31
2023-02-19T06:00:28.728Z,100785.56
2023-02-19T06:02:55.401Z,100776.78
2023-02-19T06:05:22.113Z,100762.41
2023-02-19T06:07:51.700Z,100749.88
2023-02-19T06:10:18.491Z,100744.22
2023-02-19T06:12:45.504Z,100752.53
2023-02-19T06:15:12.195Z,100756.66
2023-02-19T06:17:38.928Z,100758.31
2023-02-19T06:20:05.880Z,100771.19
2023-02-19T06:22:32.538Z,100779.09
2023-02-19T06:24:59.147Z,100781.75
2023-02-19T06:27:25.874Z,100787.19
2023-02-19T06:29:52.623Z,100785.03
2023-02-19T06:32:21.065Z,100783.34
2023-02-19T06:34:47.724Z,100798.44
2023-02-19T06:37:15.712Z,100794.16
2023-02-19T06:39:43.762Z,100803.00
2023-02-19T06:42:10.377Z,100806.75
2023-02-19T06:44:37.105Z,100805.53
2023-02-19T06:47:03.762Z,100817.69
2023-02-19T06:49:30.363Z,100807.75
2023-02-19T06:51:57.078Z,100833.19
2023-02-19T06:54:25.794Z,100835.63
2023-02-19T06:56:52.639Z,100847.75
2023-02-19T06:59:19.391Z,100846.69
2023-02-19T07:01:46.386Z,100854.88
2023-02-19T07:04:13.210Z,100853.41
2023-02-19T07:06:40.382Z,100862.75
2023-02-19T07:09:08.532Z,100867.19
2023-02-19T07:11:36.675Z,100870.88
2023-02-19T07:14:05.388Z,100884.81
2023-02-19T07:16:32.176Z,100893.78
2023-02-19T07:19:00.154Z,100894.84
2023-02-19T07:21:27.640Z,100901.81
2023-02-19T07:23:54.519Z,100907.78
2023-02-19T07:26:21.764Z,100910.03
2023-02-19T07:28:50.336Z,100911.81
2023-02-19T07:31:19.073Z,100910.69
2023-02-19T07:33:46.855Z,100911.19
2023-02-19T07:36:14.820Z,100916.75
2023-02-19T07:38:41.442Z,100911.75
2023-02-19T07:41:08.593Z,100916.97
2023-02-19T07:43:37.542Z,100906.53
2023-02-19T07:46:06.146Z,100904.56
2023-02-19T07:48:34.242Z,100908.25
2023-02-19T07:51:03.684Z,100904.84
2023-02-19T07:53:31.257Z,100892.81
2023-02-19T07:56:03.084Z,100904.91
2023-02-19T07:58:30.691Z,100912.78
2023-02-19T08:00:57.820Z,100921.50
2023-02-19T08:03:24.529Z,100922.22
2023-02-19T08:05:51.616Z,100928.47
2023-02-19T08:08:18.188Z,100935.53
2023-02-19T08:11:03.326Z,100939.94
2023-02-19T08:13:31.980Z,100942.56
2023-02-19T08:16:17.095Z,100951.16
2023-02-19T08:18:48.203Z,100956.69
2023-02-19T08:21:18.403Z,100951.59
2023-02-19T08:23:46.540Z,100960.84
2023-02-19T08:26:13.486Z,100968.53
2023-02-19T08:28:40.322Z,100969.81
2023-02-19T08:31:08.704Z,100967.41
2023-02-19T08:33:35.642Z,100970.63
2023-02-19T08:36:07.845Z,100971.75
2023-02-19T08:38:36.504Z,100973.28
2023-02-19T08:41:14.237Z,100978.00
2023-02-19T08:43:41.903Z,100976.88
2023-02-19T08:46:10.436Z,100981.16
2023-02-19T08:48:37.832Z,100977.09
2023-02-19T08:51:08.538Z,100973.19
2023-02-19T08:53:36.754Z,100977.00
2023-02-19T08:56:12.505Z,100977.25
2023-02-19T08:58:39.817Z,100977.47
2023-02-19T09:01:11.530Z,100976.22
2023-02-19T09:03:38.558Z,100975.97
2023-02-19T09:06:05.568Z,100976.94
2023-02-19T09:08:32.295Z,100971.56
2023-02-19T09:11:04.786Z,100978.28
2023-02-19T09:13:31.414Z,100974.56
2023-02-19T09:15:58.242Z,100981.25
2023-02-19T09:18:26.354Z,100976.41
2023-02-19T09:20:52.993Z,100977.16
2023-02-19T09:23:19.666Z,100977.94
2023-02-19T09:25:46.561Z,100980.53
2023-02-19T09:28:13.125Z,100972.38
2023-02-19T09:30:39.864Z,100978.50
2023-02-19T09:33:06.825Z,100983.91
2023-02-19T09:35:33.502Z,100975.72
2023-02-19T09:38:02.050Z,100980.91
2023-02-19T09:40:30.626Z,100979.78
2023-02-19T09:42:57.739Z,100981.47
2023-02-19T09:45:26.201Z,100973.66
2023-02-19T09:47:55.135Z,100975.88
2023-02-19T09:50:26.204Z,100979.41
2023-02-19T09:53:00.085Z,100977.13
2023-02-19T09:55:39.200Z,100976.75
2023-02-19T09:58:22.311Z,100977.91
2023-02-19T10:00:50.851Z,100987.97
2023-02-19T10:03:30.720Z,100974.78
2023-02-19T10:06:00.084Z,100981.28
2023-02-19T10:08:26.805Z,100990.59
2023-02-19T10:10:54.907Z,100989.09
2023-02-19T10:13:27.838Z,100979.81
2023-02-19T10:15:57.083Z,100973.84
2023-02-19T10:18:28.302Z,100979.59
2023-02-19T10:20:56.696Z,100974.53
2023-02-19T10:23:24.871Z,100979.63
2023-02-19T10:25:59.095Z,100986.72
2023-02-19T10:28:32.201Z,100981.69
2023-02-19T10:31:01.446Z,100977.31
2023-02-19T10:33:28.764Z,100987.94
2023-02-19T10:36:06.205Z,100986.50
2023-02-19T10:38:35.584Z,100984.94
2023-02-19T10:41:05.774Z,100992.56
2023-02-19T10:43:37.236Z,100993.69
2023-02-19T10:46:19.236Z,100992.44
2023-02-19T10:49:07.665Z,100992.81
2023-02-19T10:51:42.252Z,100990.53
2023-02-19T10:54:24.450Z,100993.78
2023-02-19T10:56:51.130Z,100981.75
2023-02-19T10:59:28.664Z,100989.44
2023-02-19T11:01:57.565Z,100998.31
2023-02-19T11:04:26.017Z,100986.84
2023-02-19T11:06:52.988Z,100988.38
2023-02-19T11:09:37.346Z,100993.88
2023-02-19T11:12:05.851Z,100994.22
2023-02-19T11:14:34.319Z,101001.75
2023-02-19T11:17:06.787Z,100991.50
2023-02-19T11:19:40.670Z,100983.72
2023-02-19T11:22:21.300Z,100982.75
2023-02-19T11:24:50.472Z,100983.88
2023-02-19T11:27:23.456Z,100987.22
2023-02-19T11:29:50.807Z,100989.44
2023-02-19T11:32:20.198Z,100990.69
2023-02-19T11:34:48.157Z,100980.88
2023-02-19T11:37:17.042Z,100989.41
2023-02-19T11:39:46.718Z,100980.81
2023-02-19T11:42:29.828Z,100975.94
2023-02-19T11:45:02.638Z,100977.38
2023-02-19T11:47:56.156Z,100967.97
2023-02-19T11:51:00.470Z,100965.41
2023-02-19T11:53:37.409Z,100952.78
2023-02-19T11:56:19.473Z,100945.75
2023-02-19T11:59:00.842Z,100941.16
2023-02-19T12:01:46.450Z,100940.75
2023-02-19T12:04:50.762Z,100936.09
2023-02-19T12:07:42.165Z,100935.66
2023-02-19T12:10:17.632Z,100926.88
2023-02-19T12:12:51.517Z,100924.72
2023-02-19T12:15:38.237Z,100933.56
2023-02-19T12:18:05.699Z,100935.44
2023-02-19T12:20:48.517Z,100936.88
2023-02-19T12:23:15.553Z,100932.88
2023-02-19T12:25:51.217Z,100929.75
2023-02-19T12:28:23.805Z,100933.44
2023-02-19T12:30:50.365Z,100935.38
2023-02-19T12:33:42.107Z,100930.28
2023-02-19T12:36:19.024Z,100925.84
2023-02-19T12:38:58.304Z,100931.69
2023-02-19T12:41:29.882Z,100933.66
2023-02-19T12:44:04.455Z,100928.81
2023-02-19T12:46:43.228Z,100927.31
2023-02-19T12:49:22.087Z,100916.72
2023-02-19T12:51:50.909Z,100913.84
2023-02-19T12:54:20.429Z,100909.56
2023-02-19T12:57:06.722Z,100911.66
2023-02-19T13:00:11.690Z,100913.50
2023-02-19T13:03:04.794Z,100920.75
2023-02-19T13:05:44.221Z,100916.59
2023-02-19T13:08:29.748Z,100915.88
2023-02-19T13:11:27.389Z,100921.91
2023-02-19T13:14:03.698Z,100919.91
2023-02-19T13:16:33.587Z,100917.88
2023-02-19T13:19:02.442Z,100913.97
2023-02-19T13:21:51.298Z,100907.41
2023-02-19T13:24:37.043Z,100901.47
2023-02-19T13:27:13.618Z,100906.41
2023-02-19T13:30:05.369Z,100910.75
2023-02-19T13:32:51.528Z,100909.28
2023-02-19T13:35:33.368Z,100915.41
2023-02-19T13:38:02.307Z,100910.19
2023-02-19T13:40:35.545Z,100909.75
2023-02-19T13:43:05.633Z,100917.03
2023-02-19T13:45:41.697Z,100911.09
2023-02-19T13:48:14.753Z,100903.84
2023-02-19T13:50:42.571Z,100897.41
2023-02-19T13:53:46.125Z,100897.44
2023-02-19T13:56:36.457Z,100894.50
2023-02-19T13:59:36.135Z,100887.03
2023-02-19T14:02:02.718Z,100892.28
2023-02-19T14:04:32.488Z,100896.38
2023-02-19T14:07:05.246Z,100895.56
2023-02-19T14:09:37.787Z,100884.13
2023-02-19T14:12:06.438Z,100881.53
2023-02-19T14:14:39.284Z,100879.41
2023-02-19T14:17:08.903Z,100880.00
2023-02-19T14:19:41.735Z,100874.66
2023-02-19T14:22:58.146Z,100866.63
2023-02-19T14:25:31.065Z,100873.44
2023-02-19T14:28:02.999Z,100870.88
2023-02-19T14:30:31.859Z,100868.00
2023-02-19T14:33:10.177Z,100863.50
2023-02-19T14:35:43.648Z,100864.94
2023-02-19T14:38:36.361Z,100861.50
2023-02-19T14:41:04.128Z,100869.06
2023-02-19T14:43:31.630Z,100866.56
2023-02-19T14:46:01.796Z,100866.97
2023-02-19T14:48:35.722Z,100873.16
2023-02-19T14:51:07.285Z,100874.44
2023-02-19T14:53:38.727Z,100874.00
2023-02-19T14:56:07.449Z,100872.84
2023-02-19T14:58:34.209Z,100871.41
2023-02-19T15:01:01.113Z,100877.19
2023-02-19T15:03:33.559Z,100883.19
2023-02-19T15:06:12.802Z,100878.59
2023-02-19T15:08:45.237Z,100878.75
2023-02-19T15:11:21.028Z,100878.75
2023-02-19T15:13:54.116Z,100883.53
2023-02-19T15:16:25.821Z,100881.38
2023-02-19T15:18:54.423Z,100877.97
2023-02-19T15:21:29.748Z,100870.91
2023-02-19T15:23:59.637Z,100865.50
2023-02-19T15:26:36.414Z,100880.03
2023-02-19T15:29:24.511Z,100881.44
2023-02-19T15:31:54.189Z,100886.25
2023-02-19T15:34:28.612Z,100888.28
2023-02-19T15:37:04.364Z,100890.34
2023-02-19T15:39:38.037Z,100897.97
2023-02-19T15:42:06.739Z,100887.88
2023-02-19T15:44:38.971Z,100892.75
2023-02-19T15:47:28.756Z,100895.34
2023-02-19T15:50:03.799Z,100894.75
2023-02-19T15:52:44.695Z,100897.38
2023-02-19T15:55:37.234Z,100900.53
2023-02-19T15:58:15.845Z,100897.03
2023-02-19T16:00:45.174Z,100898.34
2023-02-19T16:03:20.810Z,100903.16
2023-02-19T16:06:05.689Z,100903.38
2023-02-19T16:08:37.503Z,100896.50
2023-02-19T16:11:07.473Z,100895.34
2023-02-19T16:13:35.032Z,100882.88
2023-02-19T16:16:27.884Z,100877.09
2023-02-19T16:18:54.614Z,100877.72
2023-02-19T16:21:23.846Z,100886.28
2023-02-19T16:23:59.646Z,100886.09
2023-02-19T16:26:26.520Z,100878.06
2023-02-19T16:28:54.167Z,100894.63
2023-02-19T16:31:23.775Z,100884.94
2023-02-19T16:33:51.890Z,100887.19
2023-02-19T16:36:41.560Z,100884.78
2023-02-19T16:39:08.131Z,100880.13
2023-02-19T16:41:53.643Z,100888.16
2023-02-19T16:44:32.354Z,100893.16
2023-02-19T16:47:04.980Z,100888.09
2023-02-19T16:49:32.111Z,100893.31
2023-02-19T16:52:04.393Z,100892.00
2023-02-19T16:54:31.732Z,100897.25
2023-02-19T16:56:58.456Z,100904.31
2023-02-19T16:59:25.013Z,100892.75
2023-02-19T17:01:51.845Z,100896.09
2023-02-19T17:04:18.629Z,100902.81
2023-02-19T17:06:45.680Z,100898.13
2023-02-19T17:09:12.586Z,100891.25
2023-02-19T17:11:39.698Z,100897.03
2023-02-19T17:14:06.383Z,100891.81
2023-02-19T17:16:40.577Z,100893.84
2023-02-19T17:19:13.558Z,100898.66
2023-02-19T17:21:40.404Z,100904.81
2023-02-19T17:24:07.178Z,100907.75
2023-02-19T17:26:34.088Z,100919.31
2023-02-19T17:29:02.799Z,100925.31
2023-02-19T17:31:29.524Z,100928.66
2023-02-19T17:33:56.386Z,100938.63
2023-02-19T17:36:27.156Z,100941.97
2023-02-19T17:38:55.098Z,100942.34
2023-02-19T17:41:21.842Z,100949.47
2023-02-19T17:43:50.724Z,100943.06
2023-02-19T17:46:18.793Z,100948.75
2023-02-19T17:48:45.655Z,100945.38
2023-02-19T17:51:12.799Z,100960.97
2023-02-19T17:53:39.527Z,100961.06
2023-02-19T17:56:06.594Z,100973.56
2023-02-19T17:58:33.314Z,100973.28
2023-02-19T18:00:59.941Z,100973.59
2023-02-19T18:03:26.764Z,100969.50
2023-02-19T18:05:53.454Z,100965.81
2023-02-19T18:08:20.036Z,100974.19
2023-02-19T18:10:46.843Z,100968.19
2023-02-19T18:13:13.514Z,100975.06
2023-02-19T18:15:40.054Z,100977.63
2023-02-19T18:18:06.706Z,100986.00
2023-02-19T18:20:33.511Z,100984.84
2023-02-19T18:23:00.212Z,100997.03
2023-02-19T18:25:26.961Z,101000.34
2023-02-19T18:27:53.837Z,101005.28
2023-02-19T18:30:22.831Z,100999.28
2023-02-19T18:32:50.259Z,101009.59
2023-02-19T18:35:18.852Z,101010.72
2023-02-19T18:37:45.584Z,101010.19
2023-02-19T18:40:12.694Z,101013.97
2023-02-19T18:42:40.018Z,101019.53
2023-02-19T18:45:07.026Z,101013.19
2023-02-19T18:47:33.692Z,101014.06
2023-02-19T18:50:00.374Z,101021.53
2023-02-19T18:52:28.012Z,101016.44
2023-02-19T18:54:57.257Z,101017.34
2023-02-19T18:57:24.884Z,101019.00
2023-02-19T18:59:51.724Z,101021.88
2023-02-19T19:02:19.394Z,101016.34
2023-02-19T19:04:51.090Z,101014.34
2023-02-19T19:07:18.355Z,101006.75
2023-02-19T19:09:45.055Z,101009.84
2023-02-19T19:12:11.940Z,101014.84
2023-02-19T19:14:38.549Z,101029.16
2023-02-19T19:17:05.491Z,101025.19
2023-02-19T19:19:32.272Z,101016.84
2023-02-19T19:21:58.874Z,101013.66
2023-02-19T19:24:25.661Z,101020.13
2023-02-19T19:26:53.321Z,101014.66
2023-02-19T19:29:22.172Z,101010.66
2023-02-19T19:31:49.594Z,101017.53
2023-02-19T19:34:17.376Z,101011.72
2023-02-19T19:36:44.576Z,101007.25
2023-02-19T19:39:11.997Z,101005.88
2023-02-19T19:41:38.801Z,101012.75
2023-02-19T19:44:07.076Z,101000.63
2023-02-19T19:46:33.927Z,101001.44
2023-02-19T19:49:01.094Z,101006.38
2023-02-19T19:51:32.209Z,101008.09
2023-02-19T19:53:58.805Z,101005.13
2023-02-19T19:56:26.101Z,101011.06
2023-02-19T19:58:52.710Z,101004.09
2023-02-19T20:01:21.274Z,100999.22
2023-02-19T20:03:48.336Z,101000.03
2023-02-19T20:06:15.076Z,101008.50
2023-02-19T20:08:41.655Z,101012.75
2023-02-19T20:11:10.290Z,101006.38
2023-02-19T20:13:37.417Z,101019.81
2023-02-19T20:16:04.339Z,101003.34
2023-02-19T20:18:31.093Z,101010.41
2023-02-19T20:20:57.839Z,101005.56
2023-02-19T20:23:26.152Z,101007.97
2023-02-19T20:25:54.145Z,101008.09
2023-02-19T20:28:20.791Z,101006.81
2023-02-19T20:30:47.357Z,101009.53
2023-02-19T20:33:14.081Z,101010.75
2023-02-19T20:35:40.738Z,101009.44
2023-02-19T20:38:07.383Z,101006.22
2023-02-19T20:40:35.588Z,101005.63
2023-02-19T20:43:03.099Z,101001.22
2023-02-19T20:45:30.965Z,101003.81
2023-02-19T20:47:57.741Z,101003.75
2023-02-19T20:50:25.730Z,101001.44
2023-02-19T20:52:55.878Z,100999.75
2023-02-19T20:55:23.985Z,100997.03
2023-02-19T20:57:50.754Z,101006.53
2023-02-19T21:00:18.164Z,100999.63
2023-02-19T21:02:47.007Z,101013.63
2023-02-19T21:05:14.425Z,101009.09
2023-02-19T21:07:40.986Z,101012.34
2023-02-19T21:10:08.535Z,101008.66
2023-02-19T21:12:36.504Z,100996.88
2023-02-19T21:15:04.605Z,101000.66
2023-02-19T21:17:31.342Z,101000.81
2023-02-19T21:19:57.967Z,101012.63
2023-02-19T21:22:24.511Z,101012.66
2023-02-19T21:24:53.267Z,101014.16
2023-02-19T21:27:20.500Z,101020.00
2023-02-19T21:29:47.889Z,101021.81
2023-02-19T21:32:14.692Z,101020.84
2023-02-19T21:34:42.283Z,101034.34
2023-02-19T21:37:08.838Z,101027.84
2023-02-19T21:39:35.511Z,101037.84
2023-02-19T21:42:03.900Z,101038.25
2023-02-19T21:44:30.480Z,101042.53
2023-02-19T21:46:57.382Z,101025.81
2023-02-19T21:49:24.319Z,101036.28
2023-02-19T21:51:51.012Z,101032.03
2023-02-19T21:54:24.846Z,101030.78
2023-02-19T21:56:52.814Z,101029.22
2023-02-19T21:59:20.441Z,101029.59
2023-02-19T22:01:47.717Z,101021.44
2023-02-19T22:04:17.004Z,101033.00
2023-02-19T22:06:43.869Z,101021.75
2023-02-19T22:09:11.773Z,101023.38
2023-02-19T22:11:38.625Z,101025.50
2023-02-19T22:14:05.240Z,101016.78
2023-02-19T22:16:32.198Z,101021.13
2023-02-19T22:19:00.022Z,101019.84
2023-02-19T22:21:32.541Z,101025.53
2023-02-19T22:24:00.343Z,101024.22
2023-02-19T22:26:31.668Z,101024.91
2023-02-19T22:28:59.619Z,101024.66
2023-02-19T22:31:27.970Z,101021.66
2023-02-19T22:33:56.166Z,101017.94
2023-02-19T22:36:28.072Z,101013.91
2023-02-19T22:38:55.071Z,101026.16
2023-02-19T22:41:22.410Z,101022.09
2023-02-19T22:43:49.763Z,101020.69
2023-02-19T22:46:21.977Z,101013.56
2023-02-19T22:48:48.773Z,101013.97
2023-02-19T22:51:18.208Z,101024.06
2023-02-19T22:53:53.296Z,101020.63
2023-02-19T22:56:22.488Z,101013.91
2023-02-19T22:58:49.367Z,101016.56
2023-02-19T23:01:16.389Z,101014.00
2023-02-19T23:03:58.111Z,101014.84
2023-02-19T23:06:27.078Z,101016.56
2023-02-19T23:08:55.274Z,101022.44
2023-02-19T23:11:24.453Z,101027.78
2023-02-19T23:13:51.668Z,101014.41
2023-02-19T23:16:18.461Z,101020.59
2023-02-19T23:18:45.252Z,101026.63
2023-02-19T23:21:13.122Z,101028.50
2023-02-19T23:23:43.061Z,101027.88
2023-02-19T23:26:09.846Z,101031.28
2023-02-19T23:28:36.617Z,101027.88
2023-02-19T23:31:03.237Z,101041.31
2023-02-19T23:33:29.777Z,101032.13
2023-02-19T23:35:56.869Z,101039.09
2023-02-19T23:38:23.779Z,101042.59
2023-02-19T23:40:50.345Z,101035.16
2023-02-19T23:43:17.112Z,101032.34
2023-02-19T23:45:44.036Z,101036.97
2023-02-19T23:48:10.623Z,101034.16
2023-02-19T23:50:37.375Z,101025.00
2023-02-19T23:53:04.565Z,101028.63
2023-02-19T23:55:31.154Z,101030.97
2023-02-19T23:57:57.927Z,101027.13
